Latest Weather Observations for Dunalley

IDT60901

Issued at 12:21 am EST Thursday 7 May 2015 (issued every 10 minutes, with the page automatically refreshed every 10 minutes)

About weather observations | Map of Hobart area stations | Latest observations for Hobart area | Other Formats
Station Details ID: 094254 Name: DUNALLEY (STROUD POINT) Lat: -42.90 Lon: 147.79 Height: 12.43 m
Data from the previous 72 hours. | See also: Recent months at Dunalley
Date/Time
EST
Tmp

°C
App
Tmp
°C
Dew
Point
°C
Rel
Hum
%
Delta-T

°C
Wind Press
QNH
hPa
Press
MSL
hPa
Rain
since
9 am
mm
Dir
 
Spd
km/h
Gust
km/h
Spd
kts
Gust
kts
07/12:00am 5.7 -2.5 4.8 94 0.4 NW 37 59 20 32 1000.4 1000.4 7.0
 
Date/Time
EST
Tmp

°C
App
Tmp
°C
Dew
Point
°C
Rel
Hum
%
Delta-T

°C
Wind Press
QNH
hPa
Press
MSL
hPa
Rain
since
9 am
mm
Dir
 
Spd
km/h
Gust
km/h
Spd
kts
Gust
kts
06/11:36pm 5.7 -1.5 5.1 96 0.3 NW 32 56 17 30 999.4 999.4 7.0
06/11:30pm 5.7 -1.0 5.6 99 0.0 NW 30 43 16 23 999.7 999.7 7.0
06/11:00pm 5.6 1.4 5.5 99 0.0 WNW 17 30 9 16 1000.7 1000.7 6.8
06/10:30pm 5.8 0.3 5.7 99 0.0 WNW 24 35 13 19 1000.9 1000.9 4.8
06/10:00pm 6.5 1.5 4.7 88 0.8 NW 20 33 11 18 1000.5 1000.5 4.0
06/09:30pm 5.7 1.5 3.9 88 0.8 NNW 15 24 8 13 1000.1 1000.1 4.0
06/09:00pm 6.1 1.6 4.3 88 0.8 NW 17 28 9 15 1000.1 1000.1 4.0
06/08:30pm 5.9 0.9 4.4 90 0.6 NW 20 39 11 21 999.8 999.8 4.0
06/08:00pm 5.8 -0.3 4.8 93 0.4 NW 26 39 14 21 1000.0 1000.0 4.0
06/07:30pm 5.4 -0.6 5.1 98 0.1 NW 26 44 14 24 999.9 999.9 4.0
06/07:00pm 5.8 0.6 5.4 97 0.2 NW 22 39 12 21 999.6 999.6 4.0
06/06:30pm 5.9 -2.1 5.8 99 0.0 W 37 61 20 33 999.7 999.7 3.8
06/06:27pm 5.9 -3.2 5.8 99 0.0 WSW 43 63 23 34 999.6 999.6 3.8
06/06:19pm 6.4 -3.6 6.3 99 0.0 W 48 69 26 37 999.9 999.9 3.0
06/06:14pm 6.6 -1.2 6.5 99 0.0 WNW 37 69 20 37 999.7 999.7 2.4
06/06:09pm 6.7 0.5 6.1 96 0.3 WNW 28 52 15 28 999.4 999.4 2.2
06/06:00pm 6.8 2.1 5.9 94 0.4 WNW 20 32 11 17 999.0 999.0 1.8
06/05:30pm 6.5 0.5 5.1 91 0.6 NW 26 37 14 20 998.2 998.2 1.8
06/05:00pm 6.5 -0.7 5.0 90 0.7 NW 32 44 17 24 997.8 997.8 1.8
06/04:30pm 6.8 -1.6 5.6 92 0.5 WNW 39 61 21 33 997.5 997.5 1.8
06/04:28pm 6.6 -1.7 5.9 95 0.3 WNW 39 61 21 33 997.2 997.2 1.8
06/04:23pm 6.7 -1.9 6.4 98 0.1 WNW 41 57 22 31 997.4 997.4 1.8
06/04:00pm 7.7 -2.0 7.6 99 0.0 W 48 78 26 42 997.3 997.3 1.2
06/03:55pm 7.7 0.0 7.1 96 0.3 WNW 37 61 20 33 997.5 997.5 0.6
06/03:32pm 8.0 0.8 6.1 88 0.9 NW 33 54 18 29 996.8 996.8 0.4
06/03:30pm 8.0 0.4 6.0 87 0.9 WNW 35 54 19 29 996.7 996.7 0.4
06/03:00pm 8.3 0.6 7.2 93 0.5 WNW 37 56 20 30 996.3 996.3 0.4
06/02:48pm 8.8 2.0 7.6 92 0.6 WNW 33 56 18 30 996.4 996.4 0.4
06/02:30pm 8.7 2.6 8.1 96 0.3 WNW 30 46 16 25 996.4 996.4 0.0
06/02:00pm 10.2 4.1 8.1 87 1.0 WNW 30 43 16 23 995.6 995.6 0.0
06/01:30pm 9.3 0.9 7.3 87 0.9 WNW 41 69 22 37 995.4 995.4 0.0
06/01:00pm 12.3 4.4 7.8 74 2.2 WNW 39 59 21 32 995.2 995.2 0.0
06/12:30pm 11.5 4.0 8.0 79 1.7 WNW 37 57 20 31 995.3 995.3 0.0
06/12:00pm 12.1 3.8 7.6 74 2.2 WNW 41 59 22 32 995.0 995.0 0.0
06/11:38am 12.7 5.6 8.0 73 2.3 WNW 35 54 19 29 994.8 994.8 0.0
06/11:30am 12.5 4.6 7.8 73 2.3 NW 39 56 21 30 994.9 994.9 0.0
06/11:19am 12.3 4.0 7.6 73 2.3 WNW 41 59 22 32 994.9 994.9 0.0
06/11:00am 12.9 5.7 7.6 70 2.6 NW 35 50 19 27 995.0 995.0 0.0
06/10:34am 12.7 5.4 7.2 69 2.7 WNW 35 56 19 30 995.1 995.1 0.0
06/10:30am 13.0 6.7 7.5 69 2.7 WNW 30 46 16 25 995.2 995.2 0.0
06/10:00am 12.6 6.6 7.1 69 2.7 NW 28 44 15 24 995.0 995.0 0.0
06/09:30am 11.9 5.5 6.8 71 2.4 NW 30 48 16 26 995.3 995.3 0.0
06/09:23am 11.7 5.6 6.6 71 2.4 NW 28 48 15 26 995.4 995.4 0.0
06/09:00am 11.1 5.4 6.5 73 2.2 NW 26 41 14 22 995.6 995.6 4.0
06/08:30am 10.3 5.2 6.1 75 1.9 NW 22 33 12 18 995.6 995.6 4.0
06/08:00am 9.4 3.6 6.3 81 1.4 NW 26 37 14 20 995.3 995.3 4.0
06/07:30am 9.1 2.5 6.2 82 1.3 NW 30 41 16 22 995.2 995.2 4.0
06/07:05am 9.2 2.5 5.8 79 1.6 WNW 30 54 16 29 995.3 995.3 4.0
06/07:00am 9.3 3.4 5.9 79 1.6 WNW 26 43 14 23 995.2 995.2 4.0
06/06:30am 9.4 4.2 5.6 77 1.7 NW 22 35 12 19 995.1 995.1 4.0
06/06:00am 9.3 2.6 5.5 77 1.7 WNW 30 48 16 26 994.6 994.6 4.0
06/05:30am 9.6 3.6 5.4 75 1.9 NW 26 35 14 19 994.1 994.1 4.0
06/05:00am 10.1 3.6 4.5 68 2.5 WNW 28 39 15 21 993.6 993.6 4.0
06/04:32am 10.3 1.6 4.2 66 2.7 WNW 39 57 21 31 992.8 992.8 4.0
06/04:30am 10.2 1.1 4.1 66 2.7 WNW 41 57 22 31 992.8 992.8 4.0
06/04:04am 10.4 0.4 4.5 67 2.6 WNW 46 67 25 36 992.0 992.0 4.0
06/04:00am 10.3 0.8 4.9 69 2.5 WNW 44 61 24 33 992.0 992.0 4.0
06/03:30am 10.7 1.2 6.6 76 1.9 W 46 65 25 35 991.8 991.8 4.0
06/03:14am 10.9 1.0 6.6 75 2.0 W 48 76 26 41 991.4 991.4 4.0
06/03:06am 10.5 3.6 7.4 81 1.5 WNW 33 72 18 39 991.7 991.7 4.0
06/03:00am 11.1 3.7 6.8 75 2.1 WNW 35 52 19 28 991.6 991.6 4.0
06/02:30am 10.6 4.7 7.3 80 1.6 WNW 28 50 15 27 991.2 991.2 4.0
06/02:00am 10.9 3.6 7.2 78 1.8 WNW 35 61 19 33 990.3 990.3 4.0
06/01:40am 11.4 2.7 7.7 78 1.8 WNW 43 83 23 45 990.0 990.0 4.0
06/01:30am 11.5 3.7 8.4 81 1.5 WNW 39 61 21 33 989.8 989.8 4.0
06/01:00am 11.7 5.2 8.9 83 1.4 WNW 33 59 18 32 989.4 989.4 4.0
06/12:30am 11.9 3.4 8.6 80 1.6 WNW 43 65 23 35 987.8 987.8 4.0
06/12:00am 12.3 3.8 9.1 81 1.6 WNW 44 69 24 37 987.3 987.3 4.0
 
Date/Time
EST
Tmp

°C
App
Tmp
°C
Dew
Point
°C
Rel
Hum
%
Delta-T

°C
Wind Press
QNH
hPa
Press
MSL
hPa
Rain
since
9 am
mm
Dir
 
Spd
km/h
Gust
km/h
Spd
kts
Gust
kts
05/11:38pm 12.6 4.1 9.1 79 1.8 WNW 44 65 24 35 986.8 986.8 4.0
05/11:30pm 12.8 4.9 9.3 79 1.8 WNW 41 59 22 32 986.9 986.9 4.0
05/11:04pm 12.9 5.4 9.5 80 1.7 WNW 39 57 21 31 986.5 986.5 4.0
05/11:00pm 12.8 4.5 9.4 80 1.7 WNW 43 59 23 32 986.3 986.3 4.0
05/10:30pm 13.0 4.8 9.8 81 1.6 WNW 43 61 23 33 985.2 985.2 4.0
05/10:00pm 13.3 6.3 10.1 81 1.7 WNW 37 63 20 34 984.6 984.6 4.0
05/09:57pm 13.1 6.6 10.3 83 1.4 WNW 35 56 19 30 984.5 984.5 4.0
05/09:30pm 13.2 6.3 10.4 83 1.5 WNW 37 50 20 27 983.9 983.9 4.0
05/09:02pm 13.1 6.3 10.6 85 1.3 WNW 37 57 20 31 982.7 982.7 4.0
05/09:00pm 12.9 6.8 10.4 85 1.3 WNW 33 50 18 27 982.7 982.7 4.0
05/08:30pm 12.9 6.0 10.4 85 1.3 WNW 37 56 20 30 982.1 982.1 4.0
05/08:00pm 12.8 6.1 9.6 81 1.7 NW 35 54 19 29 981.7 981.7 4.0
05/07:34pm 12.7 7.2 9.3 80 1.7 NW 28 54 15 29 981.1 981.1 4.0
05/07:30pm 12.5 7.8 9.1 80 1.7 NW 24 37 13 20 981.1 981.1 4.0
05/07:00pm 11.8 5.4 9.4 85 1.2 NNW 33 56 18 30 981.1 981.1 4.0
05/06:30pm 12.9 7.2 8.4 74 2.2 NW 28 50 15 27 981.0 981.0 3.8
05/06:29pm 12.8 7.1 8.3 74 2.2 NNW 28 48 15 26 981.1 981.1 3.8
05/06:00pm 12.6 8.4 7.5 71 2.5 NNW 19 33 10 18 981.3 981.3 3.8
05/05:30pm 12.3 9.0 8.2 76 2.0 NNE 15 26 8 14 981.5 981.5 3.8
05/05:00pm 12.4 7.5 8.3 76 2.1 NNE 24 39 13 21 981.7 981.7 3.8
05/04:30pm 13.7 10.4 8.1 69 2.8 N 15 32 8 17 982.3 982.3 3.8
05/04:00pm 14.2 9.9 7.0 62 3.6 NW 19 39 10 21 982.7 982.7 3.8
05/03:30pm 15.8 9.5 7.3 57 4.2 NNW 30 56 16 30 983.2 983.2 3.8
05/03:27pm 15.6 9.6 7.1 57 4.2 NNW 28 56 15 30 983.3 983.3 3.8
05/03:00pm 15.5 11.4 8.5 63 3.6 NW 20 33 11 18 983.4 983.4 3.8
05/02:30pm 15.4 11.5 9.5 68 3.1 NNW 20 43 11 23 983.9 983.9 3.8
05/02:00pm 15.5 12.7 11.5 77 2.2 NNW 17 30 9 16 983.7 983.7 3.8
05/01:30pm 13.7 12.7 12.4 92 0.7 NNW 9 17 5 9 984.8 984.8 3.8
05/01:00pm 14.7 12.8 11.7 82 1.6 NNW 13 20 7 11 985.0 985.0 2.8
05/12:30pm 14.7 12.6 12.4 86 1.3 NNW 15 22 8 12 985.5 985.5 2.8
05/12:00pm 12.4 11.3 11.9 97 0.3 NNW 9 17 5 9 986.2 986.2 2.8
05/11:30am 11.1 7.6 10.9 99 0.1 NW 20 37 11 20 987.1 987.1 2.8
05/11:01am 11.9 5.8 11.6 98 0.2 NW 35 56 19 30 988.3 988.3 1.2
05/11:00am 11.9 5.7 11.4 97 0.3 NW 35 56 19 30 988.3 988.3 1.0
05/10:54am 13.3 7.7 11.4 88 1.0 N 32 56 17 30 988.1 988.1 0.6
05/10:30am 16.6 12.5 13.7 83 1.6 N 28 54 15 29 987.6 987.6 0.0
05/10:00am 17.0 11.9 13.7 81 1.9 N 33 59 18 32 987.4 987.4 0.0
05/09:30am 16.8 11.8 13.3 80 2.0 N 32 54 17 29 988.2 988.2 0.0
05/09:00am 16.7 10.4 13.6 82 1.8 N 39 70 21 38 989.3 989.3 0.2
05/08:30am 16.4 10.0 13.3 82 1.7 N 39 65 21 35 989.8 989.8 0.2
05/08:00am 16.3 9.1 13.2 82 1.7 N 43 70 23 38 990.0 990.0 0.2
05/07:36am 16.3 12.1 13.4 83 1.6 N 28 63 15 34 990.4 990.4 0.2
05/07:30am 16.0 13.4 13.3 84 1.5 N 19 41 10 22 991.0 991.0 0.2
05/07:00am 15.7 12.5 13.2 85 1.4 N 22 39 12 21 991.7 991.7 0.2
05/06:30am 15.6 12.1 13.4 87 1.2 N 24 37 13 20 992.5 992.5 0.2
05/06:00am 15.4 10.5 13.6 89 1.0 NNE 32 54 17 29 993.4 993.4 0.2
05/05:35am 15.6 11.2 14.0 90 0.9 NE 30 48 16 26 993.5 993.5 0.2
05/05:30am 15.4 11.7 13.9 91 0.8 NNE 26 35 14 19 993.8 993.8 0.2
05/05:00am 15.2 11.5 13.9 92 0.7 NE 26 39 14 21 994.0 994.0 0.2
05/04:30am 15.4 13.8 13.9 91 0.8 N 15 20 8 11 995.6 995.6 0.2
05/04:00am 16.3 14.6 13.6 84 1.5 NNE 15 26 8 14 996.6 996.6 0.0
05/03:30am 16.1 15.5 13.6 85 1.4 NNE 9 22 5 12 997.3 997.3 0.0
05/03:00am 16.9 14.5 12.8 77 2.3 N 17 32 9 17 997.8 997.8 0.0
05/02:30am 15.0 13.4 12.9 87 1.2 NNE 13 19 7 10 998.6 998.6 0.0
05/02:00am 15.3 14.0 12.4 83 1.6 N 11 17 6 9 999.8 999.8 0.0
05/01:30am 15.0 13.0 12.7 86 1.3 N 15 28 8 15 999.9 999.9 0.0
05/01:00am 15.1 12.1 12.6 85 1.4 N 20 28 11 15 1000.3 1000.3 0.0
05/12:30am 15.0 12.6 12.5 85 1.4 NNE 17 22 9 12 1000.2 1000.2 0.0
05/12:00am 14.8 12.7 12.3 85 1.4 NE 15 22 8 12 1000.7 1000.7 0.0
 
Date/Time
EST
Tmp

°C
App
Tmp
°C
Dew
Point
°C
Rel
Hum
%
Delta-T

°C
Wind Press
QNH
hPa
Press
MSL
hPa
Rain
since
9 am
mm
Dir
 
Spd
km/h
Gust
km/h
Spd
kts
Gust
kts
04/11:30pm 14.8 13.0 12.1 84 1.5 NE 13 20 7 11 1001.3 1001.3 0.0
04/11:00pm 15.1 13.5 11.7 80 1.8 NE 11 20 6 11 1002.2 1002.2 0.0
04/10:30pm 14.8 12.9 11.8 82 1.6 NNE 13 26 7 14 1002.7 1002.7 0.0
04/10:00pm 14.5 11.5 11.8 84 1.5 ENE 19 24 10 13 1003.2 1003.2 0.0
04/09:30pm 14.8 10.5 11.9 83 1.6 NE 26 32 14 17 1004.2 1004.2 0.0
04/09:00pm 14.7 11.6 11.7 82 1.6 NE 19 24 10 13 1004.4 1004.4 0.0
04/08:30pm 14.8 12.1 11.6 81 1.7 NE 17 22 9 12 1004.9 1004.9 0.0
04/08:00pm 15.1 13.1 11.5 79 1.9 NE 13 19 7 10 1005.2 1005.2 0.0
04/07:30pm 15.0 13.0 11.4 79 1.9 NE 13 17 7 9 1005.7 1005.7 0.0
04/07:00pm 15.0 11.9 11.6 80 1.8 NE 19 24 10 13 1006.0 1006.0 0.0
04/06:30pm 14.7 12.0 11.8 83 1.6 NE 17 24 9 13 1006.2 1006.2 0.0
04/06:00pm 14.8 12.2 12.1 84 1.5 NNE 17 20 9 11 1006.3 1006.3 0.0
04/05:30pm 14.9 13.4 11.9 82 1.6 NNE 11 17 6 9 1006.6 1006.6 0.0
04/05:00pm 14.9 12.1 12.6 86 1.3 NE 19 22 10 12 1006.1 1006.1 0.0
04/04:30pm 15.3 13.2 12.4 83 1.6 NNE 15 19 8 10 1007.1 1007.1 0.0
04/04:00pm 15.9 14.6 12.5 80 1.9 N 11 17 6 9 1008.0 1008.0 0.0
04/03:30pm 16.4 15.2 12.8 79 2.0 N 11 17 6 9 1008.2 1008.2 0.0
04/03:00pm 17.1 15.4 12.6 75 2.5 NNE 13 19 7 10 1008.3 1008.3 0.0
04/02:30pm 16.9 15.8 13.0 78 2.2 NE 11 17 6 9 1008.7 1008.7 0.0
04/02:00pm 16.4 14.0 14.4 88 1.1 NE 20 26 11 14 1008.8 1008.8 0.0
04/01:30pm 16.5 14.0 14.2 86 1.3 NE 20 24 11 13 1009.4 1009.4 0.0
04/01:00pm 16.5 14.1 14.3 87 1.3 NE 20 24 11 13 1010.2 1010.2 0.0
04/12:30pm 16.9 16.1 14.0 83 1.6 NNE 11 15 6 8 1010.4 1010.4 0.0
04/12:00pm 15.8 16.1 13.3 85 1.4 NNE 4 6 2 3 1011.4 1011.4 0.0
04/11:30am 14.9 15.1 12.9 88 1.1 NNE 4 6 2 3 1012.0 1012.0 0.0
04/11:00am 14.1 13.9 13.1 94 0.6 NNE 6 7 3 4 1012.5 1012.5 0.0
04/10:30am 13.9 13.5 13.0 94 0.5 NNE 7 9 4 5 1013.0 1013.0 0.0
04/10:00am 14.5 14.7 12.9 90 0.9 NNE 4 6 2 3 1013.4 1013.4 0.0
04/09:30am 14.4 14.5 12.8 90 0.9 NNE 4 6 2 3 1013.6 1013.6 0.0
04/09:00am 14.5 14.7 12.9 90 0.9 NNE 4 6 2 3 1014.0 1014.0 0.0
04/08:30am 12.8 13.5 12.3 97 0.3 CALM 0 4 0 2 1014.3 1014.3 0.0
04/08:00am 12.7 13.4 12.2 97 0.3 CALM 0 0 0 0 1014.2 1014.2 0.0
04/07:30am 11.5 10.6 11.3 99 0.1 NNE 7 11 4 6 1014.2 1014.2 0.0
04/07:00am 11.1 10.1 10.9 99 0.1 NNE 7 11 4 6 1013.9 1013.9 0.0
04/06:30am 11.1 10.1 10.9 99 0.1 NE 7 13 4 7 1014.1 1014.1 0.0
04/06:00am 11.4 11.5 11.4 100 0.0 NE 2 4 1 2 1014.4 1014.4 0.0
04/05:30am 11.5 11.9 11.3 99 0.1 CALM 0 0 0 0 1014.5 1014.5 0.0
04/05:00am 12.3 11.2 12.1 99 0.1 NE 9 11 5 6 1014.3 1014.3 0.0
04/04:30am 12.6 12.6 12.4 99 0.1 NE 4 9 2 5 1014.4 1014.4 0.0
04/04:00am 12.1 10.3 12.1 100 0.0 NE 13 17 7 9 1014.5 1014.5 0.0
04/03:30am 11.8 11.2 11.6 99 0.1 NE 6 9 3 5 1014.7 1014.7 0.0
04/03:00am 12.7 11.0 12.5 99 0.1 NE 13 19 7 10 1015.2 1015.2 0.0
04/02:30am 12.9 11.3 12.7 99 0.1 NE 13 17 7 9 1015.5 1015.5 0.0
04/02:00am 13.0 10.6 12.8 99 0.1 NE 17 20 9 11 1015.7 1015.7 0.0
04/01:30am 13.8 11.2 13.3 97 0.3 NE 19 22 10 12 1015.7 1015.7 0.0
04/01:00am 14.0 12.5 13.2 95 0.4 NNE 13 15 7 8 1016.2 1016.2 0.0
04/12:30am 14.4 12.2 13.4 94 0.6 NE 17 22 9 12 1016.4 1016.4 0.0

Latest Capital City Observations: Canberra | Sydney | Melbourne | Brisbane | Adelaide | Perth | Hobart | Darwin

Other Formats:

Comma delimited format used in spreadsheet applications
http://www.bom.gov.au/fwo/IDT60901/IDT60901.94951.axf

JavaScript Object Notation format (JSON) in row-major order
http://www.bom.gov.au/fwo/IDT60901/IDT60901.94951.json